createdAt,value
2024-02-12T00:02:29.557Z,7.43
2024-02-12T00:04:56.627Z,7.45
2024-02-12T00:07:23.537Z,7.47
2024-02-12T00:09:50.286Z,7.48
2024-02-12T00:12:17.042Z,7.46
2024-02-12T00:14:45.891Z,7.47
2024-02-12T00:17:16.576Z,7.44
2024-02-12T00:19:43.468Z,7.45
2024-02-12T00:22:10.043Z,7.48
2024-02-12T00:24:37.812Z,7.50
2024-02-12T00:27:07.710Z,7.48
2024-02-12T00:29:35.037Z,7.44
2024-02-12T00:32:01.742Z,7.44
2024-02-12T00:34:35.490Z,7.41
2024-02-12T00:37:03.203Z,7.41
2024-02-12T00:39:31.603Z,7.43
2024-02-12T00:42:00.413Z,7.43
2024-02-12T00:44:27.356Z,7.40
2024-02-12T00:46:55.331Z,7.39
2024-02-12T00:49:22.252Z,7.40
2024-02-12T00:51:52.093Z,7.41
2024-02-12T00:54:19.278Z,7.39
2024-02-12T00:56:46.275Z,7.37
2024-02-12T00:59:18.015Z,7.36
2024-02-12T01:01:44.855Z,7.38
2024-02-12T01:04:13.568Z,7.39
2024-02-12T01:06:41.369Z,7.40
2024-02-12T01:09:12.664Z,7.40
2024-02-12T01:11:40.949Z,7.41
2024-02-12T01:14:08.144Z,7.43
2024-02-12T01:16:35.772Z,7.44
2024-02-12T01:19:03.284Z,7.46
2024-02-12T01:21:34.288Z,7.49
2024-02-12T01:24:04.403Z,7.47
2024-02-12T01:26:41.499Z,7.49
2024-02-12T01:29:08.795Z,7.52
2024-02-12T01:31:36.904Z,7.51
2024-02-12T01:34:05.352Z,7.52
2024-02-12T01:36:33.024Z,7.53
2024-02-12T01:38:59.798Z,7.54
2024-02-12T01:41:26.722Z,7.54
2024-02-12T01:43:54.304Z,7.56
2024-02-12T01:46:21.368Z,7.57
2024-02-12T01:48:48.704Z,7.52
2024-02-12T01:51:25.010Z,7.53
2024-02-12T01:53:53.748Z,7.54
2024-02-12T01:56:21.747Z,7.55
2024-02-12T01:58:48.930Z,7.53
2024-02-12T02:01:16.699Z,7.52
2024-02-12T02:03:45.435Z,7.50
2024-02-12T02:06:13.888Z,7.50
2024-02-12T02:08:42.344Z,7.51
2024-02-12T02:11:13.656Z,7.55
2024-02-12T02:13:42.885Z,7.54
2024-02-12T02:16:16.519Z,7.53
2024-02-12T02:18:49.228Z,7.50
2024-02-12T02:21:22.898Z,7.51
2024-02-12T02:23:51.829Z,7.48
2024-02-12T02:26:19.535Z,7.48
2024-02-12T02:28:46.293Z,7.47
2024-02-12T02:31:13.026Z,7.46
2024-02-12T02:33:39.997Z,7.42
2024-02-12T02:36:07.119Z,7.42
2024-02-12T02:38:34.823Z,7.42
2024-02-12T02:41:02.235Z,7.44
2024-02-12T02:43:28.976Z,7.46
2024-02-12T02:45:55.797Z,7.46
2024-02-12T02:48:22.528Z,7.45
2024-02-12T02:50:49.410Z,7.45
2024-02-12T02:53:16.161Z,7.42
2024-02-12T02:55:43.682Z,7.41
2024-02-12T02:58:10.275Z,7.43
2024-02-12T03:00:37.013Z,7.43
2024-02-12T03:03:04.793Z,7.45
2024-02-12T03:05:32.157Z,7.45
2024-02-12T03:08:02.979Z,7.46
2024-02-12T03:10:31.023Z,7.45
2024-02-12T03:12:59.918Z,7.46
2024-02-12T03:15:27.096Z,7.49
2024-02-12T03:17:54.527Z,7.50
2024-02-12T03:20:22.063Z,7.49
2024-02-12T03:22:48.785Z,7.49
2024-02-12T03:25:16.447Z,7.47
2024-02-12T03:27:44.516Z,7.45
2024-02-12T03:30:11.700Z,7.46
2024-02-12T03:32:41.882Z,7.44
2024-02-12T03:35:09.124Z,7.44
2024-02-12T03:37:36.375Z,7.44
2024-02-12T03:40:04.038Z,7.43
2024-02-12T03:42:30.815Z,7.42
2024-02-12T03:44:57.734Z,7.40
2024-02-12T03:47:38.789Z,7.40
2024-02-12T03:50:26.382Z,7.41
2024-02-12T03:53:12.307Z,7.43
2024-02-12T03:55:57.856Z,7.45
2024-02-12T03:58:43.383Z,7.49
2024-02-12T04:01:11.606Z,7.50
2024-02-12T04:03:38.328Z,7.52
2024-02-12T04:06:06.745Z,7.52
2024-02-12T04:08:34.763Z,7.51
2024-02-12T04:11:01.647Z,7.48
2024-02-12T04:13:28.348Z,7.48
2024-02-12T04:15:55.491Z,7.49
2024-02-12T04:18:22.162Z,7.49
2024-02-12T04:20:49.756Z,7.49
2024-02-12T04:23:17.596Z,7.51
2024-02-12T04:25:44.381Z,7.56
2024-02-12T04:28:13.955Z,7.49
2024-02-12T04:30:40.877Z,7.47
2024-02-12T04:33:07.714Z,7.49
2024-02-12T04:35:35.939Z,7.50
2024-02-12T04:38:03.187Z,7.50
2024-02-12T04:40:30.423Z,7.49
2024-02-12T04:42:58.399Z,7.51
2024-02-12T04:45:28.303Z,7.51
2024-02-12T04:47:55.628Z,7.52
2024-02-12T04:50:23.811Z,7.52
2024-02-12T04:52:50.530Z,7.52
2024-02-12T04:55:17.627Z,7.52
2024-02-12T04:57:44.462Z,7.52
2024-02-12T05:00:11.801Z,7.50
2024-02-12T05:02:40.877Z,7.52
2024-02-12T05:05:08.457Z,7.52
2024-02-12T05:07:35.348Z,7.54
2024-02-12T05:10:01.962Z,7.54
2024-02-12T05:12:30.012Z,7.53
2024-02-12T05:14:57.235Z,7.55
2024-02-12T05:17:28.953Z,7.57
2024-02-12T05:20:14.493Z,7.58
2024-02-12T05:22:42.180Z,7.57
2024-02-12T05:25:09.220Z,7.59
2024-02-12T05:27:35.935Z,7.57
2024-02-12T05:30:03.096Z,7.57
2024-02-12T05:32:30.281Z,7.59
2024-02-12T05:35:31.304Z,7.59
2024-02-12T05:37:58.920Z,7.57
2024-02-12T05:40:25.980Z,7.58
2024-02-12T05:42:52.734Z,7.58
2024-02-12T05:45:20.358Z,7.60
2024-02-12T05:47:48.194Z,7.62
2024-02-12T05:50:15.150Z,7.64
2024-02-12T05:52:41.913Z,7.65
2024-02-12T05:55:08.525Z,7.69
2024-02-12T05:57:35.828Z,7.71
2024-02-12T06:00:03.453Z,7.74
2024-02-12T06:02:31.958Z,7.75
2024-02-12T06:04:59.974Z,7.76
2024-02-12T06:07:27.443Z,7.76
2024-02-12T06:09:54.462Z,7.75
2024-02-12T06:12:21.353Z,7.79
2024-02-12T06:14:48.571Z,7.79
2024-02-12T06:17:17.590Z,7.82
2024-02-12T06:19:44.309Z,7.83
2024-02-12T06:22:12.384Z,7.83
2024-02-12T06:24:40.201Z,7.84
2024-02-12T06:27:08.770Z,7.83
2024-02-12T06:29:39.070Z,7.85
2024-02-12T06:32:14.228Z,7.84
2024-02-12T06:34:49.819Z,7.82
2024-02-12T06:37:17.856Z,7.82
2024-02-12T06:39:44.929Z,7.83
2024-02-12T06:42:11.812Z,7.81
2024-02-12T06:44:39.455Z,7.83
2024-02-12T06:47:06.424Z,7.84
2024-02-12T06:49:33.452Z,7.86
2024-02-12T06:52:00.576Z,7.88
2024-02-12T06:54:27.139Z,7.84
2024-02-12T06:56:53.883Z,7.86
2024-02-12T06:59:20.904Z,7.86
2024-02-12T07:01:47.668Z,7.83
2024-02-12T07:04:14.569Z,7.84
2024-02-12T07:06:41.441Z,7.84
2024-02-12T07:09:09.146Z,7.85
2024-02-12T07:11:38.314Z,7.88
2024-02-12T07:14:05.161Z,7.90
2024-02-12T07:16:32.366Z,7.90
2024-02-12T07:19:02.388Z,7.91
2024-02-12T07:21:29.152Z,7.92
2024-02-12T07:23:56.084Z,7.96
2024-02-12T07:26:23.089Z,7.97
2024-02-12T07:28:50.609Z,7.98
2024-02-12T07:31:17.565Z,7.98
2024-02-12T07:33:44.646Z,7.95
2024-02-12T07:36:11.462Z,7.95
2024-02-12T07:38:38.922Z,7.97
2024-02-12T07:41:06.354Z,7.98
2024-02-12T07:43:33.051Z,7.98
2024-02-12T07:46:00.694Z,8.00
2024-02-12T07:48:28.802Z,8.01
2024-02-12T07:50:56.407Z,8.00
2024-02-12T07:53:29.354Z,8.01
2024-02-12T07:55:56.476Z,8.02
2024-02-12T07:58:25.149Z,8.02
2024-02-12T08:00:52.148Z,8.03
2024-02-12T08:03:21.020Z,8.04
2024-02-12T08:05:49.462Z,8.02
2024-02-12T08:08:17.308Z,8.00
2024-02-12T08:10:44.354Z,7.99
2024-02-12T08:13:11.254Z,8.00
2024-02-12T08:15:38.068Z,8.01
2024-02-12T08:18:07.004Z,8.03
2024-02-12T08:20:34.953Z,8.04
2024-02-12T08:23:03.949Z,8.04
2024-02-12T08:25:30.957Z,8.03
2024-02-12T08:27:59.287Z,8.03
2024-02-12T08:30:26.042Z,8.04
2024-02-12T08:32:52.846Z,8.02
2024-02-12T08:35:21.235Z,8.00
2024-02-12T08:37:48.542Z,8.01
2024-02-12T08:40:16.752Z,8.00
2024-02-12T08:42:46.437Z,7.98
2024-02-12T08:45:15.121Z,7.99
2024-02-12T08:47:42.778Z,8.00
2024-02-12T08:50:11.416Z,8.00
2024-02-12T08:52:38.261Z,8.01
2024-02-12T08:55:10.350Z,8.00
2024-02-12T08:57:44.817Z,8.01
2024-02-12T09:00:14.090Z,8.01
2024-02-12T09:02:44.297Z,8.00
2024-02-12T09:05:11.373Z,8.00
2024-02-12T09:07:38.819Z,7.98
2024-02-12T09:10:08.446Z,7.97
2024-02-12T09:12:48.136Z,7.94
2024-02-12T09:15:21.220Z,7.92
2024-02-12T09:17:48.979Z,7.92
2024-02-12T09:20:16.520Z,7.92
2024-02-12T09:22:43.540Z,7.91
2024-02-12T09:25:14.655Z,7.90
2024-02-12T09:27:48.032Z,7.89
2024-02-12T09:30:17.978Z,7.87
2024-02-12T09:32:47.490Z,7.86
2024-02-12T09:35:18.193Z,7.83
2024-02-12T09:37:46.732Z,7.82
2024-02-12T09:40:15.936Z,7.80
2024-02-12T09:42:43.577Z,7.78
2024-02-12T09:45:12.036Z,7.78
2024-02-12T09:47:43.983Z,7.77
2024-02-12T09:50:13.586Z,7.77
2024-02-12T09:52:44.580Z,7.74
2024-02-12T09:55:13.730Z,7.72
2024-02-12T09:57:41.630Z,7.72
2024-02-12T10:00:10.735Z,7.71
2024-02-12T10:02:38.962Z,7.69
2024-02-12T10:05:07.089Z,7.67
2024-02-12T10:07:40.932Z,7.67
2024-02-12T10:10:09.603Z,7.68
2024-02-12T10:12:37.215Z,7.70
2024-02-12T10:15:08.017Z,7.70
2024-02-12T10:17:35.286Z,7.68
2024-02-12T10:20:10.090Z,7.67
2024-02-12T10:22:39.748Z,7.68
2024-02-12T10:25:08.128Z,7.66
2024-02-12T10:27:36.578Z,7.65
2024-02-12T10:30:07.479Z,7.64
2024-02-12T10:32:38.757Z,7.62
2024-02-12T10:35:12.274Z,7.61
2024-02-12T10:37:39.498Z,7.60
2024-02-12T10:40:13.028Z,7.59
2024-02-12T10:42:52.866Z,7.59
2024-02-12T10:45:20.539Z,7.61
2024-02-12T10:47:52.076Z,7.60
2024-02-12T10:50:20.135Z,7.60
2024-02-12T10:52:50.635Z,7.61
2024-02-12T10:55:19.621Z,7.64
2024-02-12T10:57:47.505Z,7.67
2024-02-12T11:00:29.468Z,7.69
2024-02-12T11:02:57.231Z,7.74
2024-02-12T11:05:24.852Z,7.76
2024-02-12T11:08:10.661Z,7.76
2024-02-12T11:10:41.478Z,7.75
2024-02-12T11:13:10.901Z,7.73
2024-02-12T11:15:38.143Z,7.74
2024-02-12T11:18:15.148Z,7.74
2024-02-12T11:20:52.594Z,7.72
2024-02-12T11:23:22.202Z,7.70
2024-02-12T11:25:55.096Z,7.67
2024-02-12T11:28:25.789Z,7.66
2024-02-12T11:30:54.822Z,7.67
2024-02-12T11:33:28.704Z,7.70
2024-02-12T11:36:08.487Z,7.72
2024-02-12T11:38:59.501Z,7.73
2024-02-12T11:41:27.640Z,7.73
2024-02-12T11:43:56.184Z,7.73
2024-02-12T11:46:25.320Z,7.70
2024-02-12T11:49:08.178Z,7.68
2024-02-12T11:51:37.314Z,7.66
2024-02-12T11:54:06.669Z,7.64
2024-02-12T11:56:35.599Z,7.65
2024-02-12T11:59:06.235Z,7.67
2024-02-12T12:01:36.020Z,7.65
2024-02-12T12:04:03.212Z,7.62
2024-02-12T12:06:32.621Z,7.61
2024-02-12T12:09:00.950Z,7.59
2024-02-12T12:11:29.983Z,7.58
2024-02-12T12:14:01.525Z,7.57
2024-02-12T12:16:33.108Z,7.57
2024-02-12T12:19:12.164Z,7.53
2024-02-12T12:21:40.262Z,7.51
2024-02-12T12:24:12.162Z,7.49
2024-02-12T12:26:39.043Z,7.48
2024-02-12T12:29:06.224Z,7.45
2024-02-12T12:31:34.287Z,7.44
2024-02-12T12:34:01.419Z,7.43
2024-02-12T12:36:31.707Z,7.42
2024-02-12T12:39:02.071Z,7.43
2024-02-12T12:41:30.797Z,7.46
2024-02-12T12:43:57.800Z,7.50
2024-02-12T12:46:24.525Z,7.51
2024-02-12T12:48:51.661Z,7.52
2024-02-12T12:51:19.097Z,7.54
2024-02-12T12:53:45.870Z,7.56
2024-02-12T12:56:12.663Z,7.55
2024-02-12T12:58:39.594Z,7.53
2024-02-12T13:01:10.424Z,7.52
2024-02-12T13:03:39.705Z,7.52
2024-02-12T13:06:06.588Z,7.52
2024-02-12T13:08:34.932Z,7.50
2024-02-12T13:11:03.115Z,7.46
2024-02-12T13:13:30.478Z,7.47
2024-02-12T13:15:59.403Z,7.42
2024-02-12T13:18:30.720Z,7.39
2024-02-12T13:20:59.256Z,7.34
2024-02-12T13:23:56.730Z,7.33
2024-02-12T13:26:25.355Z,7.31
2024-02-12T13:28:55.224Z,7.28
2024-02-12T13:31:28.980Z,7.25
2024-02-12T13:33:56.074Z,7.23
2024-02-12T13:36:28.480Z,7.22
2024-02-12T13:38:55.778Z,7.21
2024-02-12T13:41:22.656Z,7.21
2024-02-12T13:43:50.403Z,7.19
2024-02-12T13:46:17.312Z,7.15
2024-02-12T13:48:47.254Z,7.13
2024-02-12T13:51:17.248Z,7.09
2024-02-12T13:53:46.557Z,7.09
2024-02-12T13:56:13.350Z,7.06
2024-02-12T13:58:40.257Z,7.03
2024-02-12T14:01:22.113Z,6.99
2024-02-12T14:03:56.937Z,6.98
2024-02-12T14:06:23.610Z,6.99
2024-02-12T14:08:50.645Z,6.99
2024-02-12T14:11:17.889Z,6.95
2024-02-12T14:13:46.630Z,6.92
2024-02-12T14:16:13.636Z,6.91
2024-02-12T14:18:44.181Z,6.92
2024-02-12T14:21:12.763Z,6.90
2024-02-12T14:23:42.650Z,6.88
2024-02-12T14:26:14.042Z,6.86
2024-02-12T14:28:44.444Z,6.85
2024-02-12T14:31:16.231Z,6.86
2024-02-12T14:33:46.131Z,6.85
2024-02-12T14:36:14.924Z,6.86
2024-02-12T14:38:42.181Z,6.86
2024-02-12T14:41:09.943Z,6.85
2024-02-12T14:43:37.434Z,6.81
2024-02-12T14:46:04.624Z,6.76
2024-02-12T14:48:32.959Z,6.72
2024-02-12T14:51:00.019Z,6.65
2024-02-12T14:53:27.911Z,6.61
2024-02-12T14:55:55.022Z,6.57
2024-02-12T14:58:21.625Z,6.52
2024-02-12T15:00:48.421Z,6.48
2024-02-12T15:03:15.433Z,6.44
2024-02-12T15:05:42.949Z,6.42
2024-02-12T15:08:09.761Z,6.39
2024-02-12T15:10:37.083Z,6.36
2024-02-12T15:13:17.260Z,6.34
2024-02-12T15:15:46.921Z,6.32
2024-02-12T15:18:17.811Z,6.28
2024-02-12T15:20:46.560Z,6.27
2024-02-12T15:23:15.582Z,6.25
2024-02-12T15:25:44.484Z,6.23
2024-02-12T15:28:15.009Z,6.26
2024-02-12T15:30:49.809Z,6.28
2024-02-12T15:33:16.909Z,6.27
2024-02-12T15:35:45.579Z,6.26
2024-02-12T15:38:16.416Z,6.31
2024-02-12T15:40:44.282Z,6.30
2024-02-12T15:43:15.017Z,6.28
2024-02-12T15:45:41.950Z,6.26
2024-02-12T15:48:17.142Z,6.24
2024-02-12T15:50:46.627Z,6.22
2024-02-12T15:53:13.949Z,6.18
2024-02-12T15:55:45.070Z,6.16
2024-02-12T15:58:14.805Z,6.15
2024-02-12T16:00:42.637Z,6.13
2024-02-12T16:03:13.115Z,6.10
2024-02-12T16:06:07.442Z,6.08
2024-02-12T16:08:37.169Z,6.08
2024-02-12T16:11:05.113Z,-47.55
2024-02-12T16:13:32.246Z,-128.00
2024-02-12T16:16:00.924Z,-128.00
2024-02-12T16:18:30.934Z,-128.00
2024-02-12T16:20:58.040Z,-128.00
2024-02-12T16:23:32.519Z,-128.00
2024-02-12T16:25:59.907Z,-128.00
2024-02-12T16:28:30.608Z,-128.00
2024-02-12T16:31:01.566Z,-128.00
2024-02-12T16:33:28.352Z,-128.00
2024-02-12T16:35:56.716Z,-128.00
2024-02-12T16:38:23.545Z,-128.00
2024-02-12T16:40:51.460Z,-128.00
2024-02-12T16:43:19.404Z,-128.00
2024-02-12T16:45:46.227Z,-128.00
2024-02-12T16:48:14.113Z,-128.00
2024-02-12T16:50:42.542Z,-128.00
2024-02-12T16:53:10.399Z,-128.00
2024-02-12T16:55:41.128Z,-128.00
2024-02-12T16:58:08.788Z,-128.00
2024-02-12T17:00:37.220Z,-128.00
2024-02-12T17:03:04.453Z,-128.00
2024-02-12T17:05:31.741Z,-128.00
2024-02-12T17:08:06.729Z,-128.00
2024-02-12T17:10:36.530Z,-128.00
2024-02-12T17:13:07.015Z,-128.00
2024-02-12T17:15:37.043Z,-128.00
2024-02-12T17:18:08.159Z,-128.00
2024-02-12T17:20:37.727Z,-128.00
2024-02-12T17:23:07.912Z,-128.00
2024-02-12T17:25:34.891Z,-128.00
2024-02-12T17:28:03.935Z,-128.00
2024-02-12T17:30:31.892Z,-128.00
2024-02-12T17:33:00.871Z,-128.00
2024-02-12T17:35:28.037Z,-128.00
2024-02-12T17:37:58.141Z,-128.00
2024-02-12T17:40:25.087Z,-128.00
2024-02-12T17:42:53.057Z,-128.00
2024-02-12T17:45:19.910Z,-128.00
2024-02-12T17:47:50.201Z,-128.00
2024-02-12T17:50:20.604Z,-128.00
2024-02-12T17:52:47.310Z,-128.00
2024-02-12T17:55:16.124Z,-128.00
2024-02-12T17:57:43.238Z,-128.00
2024-02-12T18:00:12.326Z,-128.00
2024-02-12T18:02:39.479Z,-128.00
2024-02-12T18:05:09.517Z,-128.00
2024-02-12T18:07:37.983Z,-128.00
2024-02-12T18:10:06.499Z,-128.00
2024-02-12T18:12:34.974Z,-128.00
2024-02-12T18:15:01.773Z,-128.00
2024-02-12T18:17:28.906Z,-128.00
2024-02-12T18:19:58.026Z,-128.00
2024-02-12T18:22:26.681Z,-128.00
2024-02-12T18:24:54.379Z,-128.00
2024-02-12T18:27:21.265Z,-128.00
2024-02-12T18:29:48.324Z,-128.00
2024-02-12T18:32:15.366Z,-128.00
2024-02-12T18:34:44.047Z,-128.00
2024-02-12T18:37:14.661Z,-128.00
2024-02-12T18:39:41.727Z,-128.00
2024-02-12T18:42:09.174Z,-128.00
2024-02-12T18:44:36.098Z,-128.00
2024-02-12T18:47:03.377Z,-128.00
2024-02-12T18:49:30.756Z,-128.00
2024-02-12T18:51:58.204Z,-128.00
2024-02-12T18:54:27.452Z,-128.00
2024-02-12T18:56:56.114Z,-128.00
2024-02-12T18:59:24.977Z,-128.00
2024-02-12T19:01:55.076Z,-128.00
2024-02-12T19:04:22.464Z,-128.00
2024-02-12T19:06:50.659Z,-128.00
2024-02-12T19:09:18.176Z,-128.00
2024-02-12T19:11:47.024Z,-128.00
2024-02-12T19:14:16.600Z,-128.00
2024-02-12T19:16:43.990Z,-128.00
2024-02-12T19:19:13.042Z,-128.00
2024-02-12T19:21:42.150Z,-128.00
2024-02-12T19:24:10.777Z,-128.00
2024-02-12T19:26:38.012Z,-128.00
2024-02-12T19:29:05.908Z,-128.00
2024-02-12T19:31:34.673Z,-128.00
2024-02-12T19:34:01.717Z,-128.00
2024-02-12T19:36:28.420Z,-128.00
2024-02-12T19:38:55.376Z,-128.00
2024-02-12T19:41:25.631Z,-128.00
2024-02-12T19:43:52.772Z,-128.00
2024-02-12T19:46:19.853Z,-128.00
2024-02-12T19:48:49.333Z,-128.00
2024-02-12T19:51:16.766Z,-128.00
2024-02-12T19:53:43.513Z,-128.00
2024-02-12T19:56:10.542Z,-128.00
2024-02-12T19:58:37.736Z,-128.00
2024-02-12T20:01:07.121Z,-128.00
2024-02-12T20:03:55.589Z,-128.00
2024-02-12T20:06:22.224Z,-128.00
2024-02-12T20:08:49.087Z,-128.00
2024-02-12T20:11:19.427Z,-128.00
2024-02-12T20:13:47.547Z,-128.00
2024-02-12T20:16:15.319Z,-128.00
2024-02-12T20:18:42.933Z,-128.00
2024-02-12T20:21:10.740Z,-128.00
2024-02-12T20:23:38.013Z,-128.00
2024-02-12T20:26:07.717Z,-128.00
2024-02-12T20:28:35.029Z,-128.00
2024-02-12T20:31:02.018Z,-128.00
2024-02-12T20:33:29.714Z,-128.00
2024-02-12T20:35:59.409Z,-128.00
2024-02-12T20:38:26.593Z,-128.00
2024-02-12T20:40:54.669Z,-128.00
2024-02-12T20:43:21.956Z,-128.00
2024-02-12T20:45:48.779Z,-128.00
2024-02-12T20:48:18.891Z,-128.00
2024-02-12T20:50:45.954Z,-128.00
2024-02-12T20:53:13.484Z,-128.00
2024-02-12T20:55:40.909Z,-128.00
2024-02-12T20:58:08.025Z,-128.00
2024-02-12T21:00:36.496Z,-128.00
2024-02-12T21:03:07.597Z,-128.00
2024-02-12T21:05:37.190Z,-128.00
2024-02-12T21:08:04.598Z,-128.00
2024-02-12T21:10:32.158Z,-128.00
2024-02-12T21:12:59.180Z,-128.00
2024-02-12T21:15:26.388Z,-128.00
2024-02-12T21:17:54.081Z,-128.00
2024-02-12T21:20:21.880Z,-128.00
2024-02-12T21:22:48.955Z,-128.00
2024-02-12T21:25:16.332Z,-128.00
2024-02-12T21:27:45.415Z,-128.00
2024-02-12T21:30:12.726Z,-128.00
2024-02-12T21:32:41.768Z,-128.00
2024-02-12T21:35:08.996Z,-128.00
2024-02-12T21:37:37.700Z,-128.00
2024-02-12T21:40:12.559Z,-128.00
2024-02-12T21:42:39.298Z,-128.00
2024-02-12T21:45:09.226Z,-128.00
2024-02-12T21:47:36.508Z,-128.00
2024-02-12T21:50:04.637Z,-128.00
2024-02-12T21:52:31.308Z,-128.00
2024-02-12T21:55:00.353Z,-128.00
2024-02-12T21:57:27.410Z,-128.00
2024-02-12T21:59:55.466Z,-128.00
2024-02-12T22:02:22.752Z,-128.00
2024-02-12T22:04:54.117Z,-128.00
2024-02-12T22:07:23.040Z,-128.00
2024-02-12T22:09:50.178Z,-128.00
2024-02-12T22:12:17.658Z,-128.00
2024-02-12T22:14:45.553Z,-128.00
2024-02-12T22:17:13.077Z,-128.00
2024-02-12T22:19:41.457Z,-128.00
2024-02-12T22:22:08.709Z,-128.00
2024-02-12T22:24:35.632Z,-128.00
2024-02-12T22:27:04.586Z,-128.00
2024-02-12T22:29:31.404Z,-128.00
2024-02-12T22:31:58.655Z,-128.00
2024-02-12T22:34:25.552Z,-128.00
2024-02-12T22:36:53.144Z,-128.00
2024-02-12T22:39:20.974Z,-128.00
2024-02-12T22:41:48.060Z,-128.00
2024-02-12T22:44:15.027Z,-128.00
2024-02-12T22:46:44.039Z,-128.00
2024-02-12T22:49:13.274Z,-128.00
2024-02-12T22:51:41.209Z,-128.00
2024-02-12T22:54:11.792Z,-128.00
2024-02-12T22:56:38.842Z,-128.00
2024-02-12T22:59:07.429Z,-128.00
2024-02-12T23:01:34.276Z,-128.00
2024-02-12T23:04:02.730Z,-128.00
2024-02-12T23:06:30.288Z,-128.00
2024-02-12T23:08:57.253Z,-128.00
2024-02-12T23:11:25.639Z,-128.00
2024-02-12T23:13:55.355Z,-128.00
2024-02-12T23:16:22.203Z,-128.00
2024-02-12T23:18:49.111Z,-128.00
2024-02-12T23:21:18.349Z,-128.00
2024-02-12T23:23:45.410Z,-128.00
2024-02-12T23:26:12.717Z,-128.00
2024-02-12T23:28:42.130Z,-128.00
2024-02-12T23:31:09.040Z,-128.00
2024-02-12T23:33:36.717Z,-128.00
2024-02-12T23:36:03.970Z,-128.00
2024-02-12T23:38:35.974Z,-128.00
2024-02-12T23:41:03.433Z,-128.00
2024-02-12T23:43:30.550Z,-128.00
2024-02-12T23:45:57.504Z,-128.00
2024-02-12T23:48:24.363Z,-128.00
2024-02-12T23:50:51.816Z,-128.00
2024-02-12T23:53:19.062Z,-128.00
2024-02-12T23:55:50.313Z,-128.00
2024-02-12T23:58:31.816Z,-128.00
